Данни от 18.06.2018 г. 12:46:58

Температура вътрешна: 25.5 °C
Температура външна: 26.3 °C
Атмосферно налягане: 994.2 hPa
Атмосферно налягане на морско равнище: 1011.9 hPa
Влажност: 58.6 %



История от последните 24 часа

Дата и часTin [°C]P [hPa]Psl [hPa]H [%]Tout [°C]
   18.06.2018 г. 12:30:57      25.5      994.3      1012.0      58.8      25.4   
   18.06.2018 г. 12:00:57      25.5      994.4      1012.1      58.3      25.5   
   18.06.2018 г. 11:30:57      25.5      994.6      1012.3      58.2      24.6   
   18.06.2018 г. 11:00:58      25.5      994.7      1012.5      58.9      24.0   
   18.06.2018 г. 10:30:57      25.4      994.5      1012.2      59.0      22.9   
   18.06.2018 г. 10:00:58      25.4      994.5      1012.3      58.5      22.3   
   18.06.2018 г. 09:30:57      25.4      994.7      1012.4      58.4      22.6   
   18.06.2018 г. 09:00:58      25.4      994.4      1012.2      59.3      22.4   
   18.06.2018 г. 08:30:57      25.3      994.2      1012.0      59.2      22.3   
   18.06.2018 г. 08:00:58      25.4      994.1      1011.8      59.0      22.0   
   18.06.2018 г. 07:30:57      25.4      994.1      1011.9      59.3      21.1   
   18.06.2018 г. 07:00:58      25.4      994.0      1011.7      59.4      20.9   
   18.06.2018 г. 06:30:57      25.4      993.8      1011.6      59.4      20.8   
   18.06.2018 г. 06:00:58      25.4      993.7      1011.5      59.2      20.5   
   18.06.2018 г. 05:30:57      25.4      993.4      1011.1      59.3      20.6   
   18.06.2018 г. 05:00:58      25.4      992.9      1010.6      58.9      20.6   
   18.06.2018 г. 04:30:57      25.4      992.8      1010.5      59.0      21.3   
   18.06.2018 г. 04:00:58      25.4      992.8      1010.5      58.7      21.0   
   18.06.2018 г. 03:30:57      25.3      992.7      1010.4      58.8      20.9   
   18.06.2018 г. 03:00:58      25.3      992.8      1010.5      59.3      20.8   
   18.06.2018 г. 02:30:57      25.3      993.2      1011.0      59.2      22.0   
   18.06.2018 г. 02:00:58      25.3      993.4      1011.1      59.4      22.4   
   18.06.2018 г. 01:30:57      25.3      993.4      1011.2      58.7      22.6   
   18.06.2018 г. 01:00:58      25.3      993.4      1011.1      58.9      22.6   
   18.06.2018 г. 00:30:57      25.4      993.4      1011.1      59.4      22.9   
   18.06.2018 г. 00:00:57      25.4      993.3      1011.1      59.1      22.9   
   17.06.2018 г. 23:30:57      25.3      993.2      1010.9      59.8      23.3   
   17.06.2018 г. 23:00:57      25.3      993.1      1010.9      59.3      23.8   
   17.06.2018 г. 22:30:58      25.3      993.2      1010.9      59.1      24.6   
   17.06.2018 г. 22:00:57      25.3      993.2      1010.9      58.7      25.0   
   17.06.2018 г. 21:30:58      25.3      992.5      1010.3      58.3      24.9   
   17.06.2018 г. 21:00:57      25.4      992.3      1010.0      59.1      25.4   
   17.06.2018 г. 20:30:58      25.4      992.3      1010.0      58.5      26.4   
   17.06.2018 г. 20:00:57      25.3      992.0      1009.7      58.0      28.6   
   17.06.2018 г. 19:30:58      25.3      991.9      1009.6      57.6      29.4   
   17.06.2018 г. 19:00:57      25.3      991.7      1009.4      57.6      30.1   
   17.06.2018 г. 18:30:58      25.3      991.3      1009.0      58.2      31.3   
   17.06.2018 г. 18:00:57      25.3      991.3      1009.0      57.8      32.6   
   17.06.2018 г. 17:30:58      25.2      991.4      1009.1      57.2      33.8   
   17.06.2018 г. 17:00:57      25.2      991.5      1009.2      57.4      32.6   
   17.06.2018 г. 16:30:58      25.2      991.5      1009.2      57.4      31.4   
   17.06.2018 г. 16:00:57      25.2      991.6      1009.3      57.4      30.2   
   17.06.2018 г. 15:30:58      25.1      991.9      1009.6      57.8      29.0   
   17.06.2018 г. 15:00:57      25.1      992.1      1009.9      57.6      27.8   
   17.06.2018 г. 14:30:58      25.0      992.3      1010.0      57.7      27.1   
   17.06.2018 г. 14:00:57      25.0      992.7      1010.4      58.3      26.5   
   17.06.2018 г. 13:30:58      25.0      993.0      1010.7      58.3      25.9   
   17.06.2018 г. 13:00:57      25.1      993.3      1011.0      59.1      25.4   

BaroSL graphic

TEMPE graphic